Time;durP1;ratioP1;P1;durP2;ratioP2;P2;SDS_P1;SDS_P2;PMS_P1;PMS_P2;Temp;Humidity;BMP_temperature;BMP_pressure;BME280_temperature;BME280_humidity;BME280_pressure;Samples;Min_cycle;Max_cycle;Signal;HPM_P1;HPM_P2
2023/05/01 00:01:51;;;;;;;10.63;3.13;;;5.20;97.30;;;;;;4950862;28;20198;-83
2023/05/01 00:04:16;;;;;;;6.93;1.70;;;5.20;97.30;;;;;;4959221;28;20425;-83
2023/05/01 00:06:42;;;;;;;2.63;2.43;;;5.10;97.30;;;;;;4974950;28;20209;-83
2023/05/01 00:09:08;;;;;;;3.93;3.07;;;5.10;97.30;;;;;;4980711;28;20186;-83
2023/05/01 00:11:36;;;;;;;4.40;3.23;;;5.00;97.30;;;;;;4988260;28;20217;-83
2023/05/01 00:14:02;;;;;;;1.53;1.43;;;5.00;97.30;;;;;;4981458;28;20422;-84
2023/05/01 00:16:27;;;;;;;3.67;2.70;;;5.00;97.30;;;;;;4982581;28;20427;-84
2023/05/01 00:18:53;;;;;;;2.53;2.33;;;4.90;97.30;;;;;;4982750;28;20441;-84
2023/05/01 00:21:19;;;;;;;8.43;2.93;;;4.90;97.30;;;;;;4978809;28;20190;-84
2023/05/01 00:23:44;;;;;;;2.30;2.10;;;4.90;97.30;;;;;;4968918;28;20424;-84
2023/05/01 00:26:10;;;;;;;6.57;3.90;;;4.90;97.30;;;;;;4980457;28;20174;-84
2023/05/01 00:28:35;;;;;;;1.63;1.60;;;4.90;97.30;;;;;;4990330;28;20256;-83
2023/05/01 00:31:01;;;;;;;3.20;1.90;;;4.80;97.30;;;;;;4974614;28;20198;-84
2023/05/01 00:33:27;;;;;;;2.60;2.23;;;4.80;97.30;;;;;;4958350;28;20633;-85
2023/05/01 00:35:52;;;;;;;4.20;3.97;;;4.80;97.30;;;;;;4984928;28;20181;-84
2023/05/01 00:38:18;;;;;;;4.40;2.67;;;4.70;97.30;;;;;;4978981;28;20897;-84
2023/05/01 00:40:44;;;;;;;1.80;1.70;;;4.70;97.30;;;;;;4958529;28;20206;-84
2023/05/01 00:43:10;;;;;;;3.33;3.13;;;4.70;97.30;;;;;;4964049;28;20197;-84
2023/05/01 00:45:36;;;;;;;4.80;2.87;;;4.70;97.30;;;;;;4977524;28;20498;-83
2023/05/01 00:48:02;;;;;;;2.03;1.80;;;4.70;97.30;;;;;;4981107;28;20426;-84
2023/05/01 00:50:28;;;;;;;3.70;3.50;;;4.70;97.30;;;;;;4991699;28;20779;-85
2023/05/01 00:52:55;;;;;;;2.23;2.03;;;4.60;97.30;;;;;;4993916;28;20631;-84
2023/05/01 00:55:21;;;;;;;12.13;3.63;;;4.60;97.30;;;;;;4978772;28;20842;-83
2023/05/01 00:57:46;;;;;;;3.17;2.97;;;4.60;97.30;;;;;;4981857;28;20464;-84
2023/05/01 01:00:12;;;;;;;6.80;3.13;;;4.50;97.30;;;;;;4980918;28;20421;-85
2023/05/01 01:02:38;;;;;;;5.90;2.50;;;4.50;97.30;;;;;;4976150;28;20206;-84
2023/05/01 01:05:04;;;;;;;2.97;2.77;;;4.50;97.30;;;;;;4974369;28;20414;-85
2023/05/01 01:07:41;;;;;;;1.67;1.53;;;4.50;97.30;;;;;;4981967;28;20187;-82
2023/05/01 01:10:20;;;;;;;5.33;3.40;;;4.40;97.30;;;;;;4993203;28;20305;-85
2023/05/01 01:13:16;;;;;;;7.50;2.53;;;4.40;97.30;;;;;;4982577;28;20502;-85
2023/05/01 01:15:52;;;;;;;2.77;2.57;;;4.40;97.30;;;;;;4959181;28;20468;-85
2023/05/01 01:18:28;;;;;;;2.27;2.10;;;4.40;97.30;;;;;;4971848;28;20457;-85
2023/05/01 01:21:01;;;;;;;4.17;3.03;;;4.40;97.30;;;;;;4985422;28;20464;-84
2023/05/01 01:23:32;;;;;;;2.70;2.17;;;4.30;97.30;;;;;;4977552;28;20437;-84
2023/05/01 01:26:22;;;;;;;2.13;1.97;;;4.30;97.30;;;;;;4965577;28;20441;-85
2023/05/01 01:29:14;;;;;;;4.60;2.90;;;4.30;97.30;;;;;;4993487;28;20413;-85
2023/05/01 01:31:49;;;;;;;2.03;1.90;;;4.30;97.30;;;;;;4977007;28;20823;-84
2023/05/01 01:34:33;;;;;;;2.70;2.50;;;4.20;97.30;;;;;;4970531;28;20461;-85
2023/05/01 01:37:09;;;;;;;3.50;3.30;;;4.20;97.30;;;;;;4979111;28;20454;-85
2023/05/01 01:39:55;;;;;;;14.73;3.87;;;4.10;97.30;;;;;;4972657;28;20478;-85
2023/05/01 01:42:27;;;;;;;3.53;2.03;;;4.10;97.30;;;;;;4990723;28;21161;-85
2023/05/01 01:45:01;;;;;;;1.77;1.67;;;4.10;97.30;;;;;;4984767;28;20441;-86
2023/05/01 01:47:31;;;;;;;2.57;2.37;;;4.10;97.30;;;;;;4965803;28;20569;-85
2023/05/01 01:50:03;;;;;;;1.77;1.57;;;4.10;97.30;;;;;;4976803;28;20429;-85
2023/05/01 01:52:31;;;;;;;2.63;2.43;;;4.00;97.30;;;;;;4985002;28;20441;-85
2023/05/01 01:55:05;;;;;;;2.67;2.47;;;4.00;97.30;;;;;;4957727;28;20438;-84
2023/05/01 01:57:31;;;;;;;1.70;1.60;;;3.90;97.30;;;;;;4973071;28;20484;-85
2023/05/01 01:59:57;;;;;;;2.30;2.10;;;3.90;97.30;;;;;;4960384;28;20511;-85
2023/05/01 02:02:25;;;;;;;6.23;1.90;;;3.80;97.30;;;;;;4985552;28;20688;-85
2023/05/01 02:04:52;;;;;;;6.03;4.47;;;3.80;97.30;;;;;;4956718;28;20559;-85
2023/05/01 02:07:18;;;;;;;3.30;1.90;;;3.70;97.30;;;;;;4981956;28;20437;-85
2023/05/01 02:09:45;;;;;;;4.93;3.50;;;3.70;97.30;;;;;;4980807;28;20555;-85
2023/05/01 02:12:13;;;;;;;1.60;1.50;;;3.70;97.30;;;;;;4956590;28;20595;-85
2023/05/01 02:14:40;;;;;;;3.33;2.93;;;3.70;97.30;;;;;;4980731;28;20433;-84
2023/05/01 02:17:07;;;;;;;3.23;2.07;;;3.70;97.30;;;;;;4964312;28;20470;-84
2023/05/01 02:19:34;;;;;;;2.50;1.63;;;3.60;97.30;;;;;;4964757;28;20803;-82
2023/05/01 02:22:01;;;;;;;1.60;1.50;;;3.60;97.30;;;;;;4980575;28;20460;-85
2023/05/01 02:24:28;;;;;;;5.13;3.20;;;3.60;97.30;;;;;;4953101;28;20462;-84
2023/05/01 02:27:00;;;;;;;3.43;2.43;;;3.50;97.30;;;;;;4974485;28;20504;-85
2023/05/01 02:29:26;;;;;;;2.53;2.27;;;;;;;;;;4978036;28;20512;-85
2023/05/01 02:31:51;;;;;;;1.93;1.83;;;3.50;97.30;;;;;;4967275;28;20447;-85
2023/05/01 02:34:17;;;;;;;5.50;3.03;;;3.50;97.30;;;;;;4978581;28;20520;-84
2023/05/01 02:36:43;;;;;;;5.53;3.03;;;3.50;97.30;;;;;;4981574;28;20209;-84
2023/05/01 02:39:08;;;;;;;2.87;2.67;;;3.50;97.30;;;;;;4986454;28;20210;-85
2023/05/01 02:41:35;;;;;;;2.13;1.97;;;3.50;97.30;;;;;;4975366;28;20198;-82
2023/05/01 02:44:03;;;;;;;2.53;2.33;;;3.60;97.30;;;;;;4960053;28;20721;-84
2023/05/01 02:46:32;;;;;;;3.93;2.50;;;3.50;97.30;;;;;;4984562;28;20841;-85
2023/05/01 02:49:01;;;;;;;4.57;3.30;;;3.60;97.30;;;;;;4973390;28;20424;-85
2023/05/01 02:51:28;;;;;;;3.33;2.87;;;3.60;97.30;;;;;;4956008;28;21850;-85
2023/05/01 02:53:54;;;;;;;2.63;2.07;;;3.50;97.30;;;;;;4971823;28;20974;-85
2023/05/01 02:56:20;;;;;;;2.33;2.13;;;3.50;97.30;;;;;;4970299;28;20508;-85
2023/05/01 02:58:48;;;;;;;1.70;1.60;;;3.50;97.30;;;;;;4985046;28;20607;-84
2023/05/01 03:01:13;;;;;;;4.80;3.60;;;3.50;97.30;;;;;;4959678;28;20417;-85
2023/05/01 03:03:39;;;;;;;2.93;2.30;;;3.50;97.30;;;;;;4967539;28;20529;-85
2023/05/01 03:06:04;;;;;;;4.70;2.40;;;3.50;97.30;;;;;;4987935;28;20186;-85
2023/05/01 03:08:30;;;;;;;3.27;2.40;;;3.40;97.30;;;;;;4987156;28;20182;-87
2023/05/01 03:10:56;;;;;;;1.50;1.40;;;3.40;97.30;;;;;;4983991;28;20257;-85
2023/05/01 03:13:21;;;;;;;2.73;2.53;;;3.40;97.30;;;;;;4973951;28;20201;-85
2023/05/01 03:15:47;;;;;;;8.70;2.40;;;3.40;97.30;;;;;;4986627;28;20211;-84
2023/05/01 03:18:12;;;;;;;3.77;2.03;;;3.30;97.30;;;;;;4989518;28;20285;-83
2023/05/01 03:20:38;;;;;;;2.70;2.17;;;3.20;97.30;;;;;;4975740;28;20217;-84
2023/05/01 03:23:05;;;;;;;2.73;2.37;;;3.20;97.30;;;;;;4986796;28;20288;-84
2023/05/01 03:25:30;;;;;;;4.93;2.27;;;3.20;97.30;;;;;;4995935;28;20170;-85
2023/05/01 03:27:56;;;;;;;5.63;2.50;;;3.20;97.30;;;;;;4988109;28;20423;-85
2023/05/01 03:30:21;;;;;;;3.80;3.30;;;3.20;97.30;;;;;;4980394;28;20186;-85
2023/05/01 03:32:47;;;;;;;2.07;1.93;;;3.20;97.30;;;;;;4985544;28;20206;-84
2023/05/01 03:35:12;;;;;;;3.67;2.77;;;3.20;97.30;;;;;;4994536;28;20233;-85
2023/05/01 03:37:38;;;;;;;3.43;2.60;;;3.20;97.30;;;;;;4986290;28;20202;-85
2023/05/01 03:40:04;;;;;;;3.93;3.17;;;3.10;97.30;;;;;;4992008;28;20186;-85
2023/05/01 03:42:29;;;;;;;3.00;2.83;;;3.10;97.30;;;;;;4958734;28;20715;-86
2023/05/01 03:44:55;;;;;;;5.30;2.60;;;3.10;97.30;;;;;;4958913;28;20449;-85
2023/05/01 03:47:20;;;;;;;4.33;3.37;;;3.20;97.30;;;;;;4958550;28;20217;-85
2023/05/01 03:49:46;;;;;;;2.27;2.10;;;3.20;97.30;;;;;;4975923;28;20277;-84
2023/05/01 03:52:12;;;;;;;4.40;3.83;;;3.20;97.30;;;;;;4986199;28;20205;-85
2023/05/01 03:54:38;;;;;;;5.13;2.50;;;3.20;97.30;;;;;;4977807;28;20190;-83
2023/05/01 03:57:03;;;;;;;2.33;1.80;;;3.20;97.30;;;;;;4982988;28;20198;-80
2023/05/01 03:59:29;;;;;;;7.10;3.33;;;3.20;97.30;;;;;;4974537;28;20419;-85
2023/05/01 04:01:55;;;;;;;7.33;2.50;;;3.20;97.30;;;;;;4984721;28;20204;-85
2023/05/01 04:04:20;;;;;;;2.60;1.77;;;3.20;97.30;;;;;;4988196;28;20549;-85
2023/05/01 04:06:48;;;;;;;2.63;2.43;;;3.20;97.30;;;;;;4984989;28;20260;-85
2023/05/01 04:09:14;;;;;;;4.30;2.23;;;3.20;97.30;;;;;;4990113;28;20203;-85
2023/05/01 04:11:39;;;;;;;1.63;1.60;;;3.30;97.30;;;;;;4991577;28;20461;-84
2023/05/01 04:14:05;;;;;;;1.77;1.67;;;3.30;97.30;;;;;;4979408;28;20428;-86
2023/05/01 04:16:30;;;;;;;4.83;3.07;;;3.30;97.30;;;;;;4985680;28;20174;-85
2023/05/01 04:18:56;;;;;;;2.33;2.13;;;3.30;97.30;;;;;;4985498;28;20180;-85
2023/05/01 04:21:21;;;;;;;3.03;2.87;;;3.40;97.30;;;;;;4994973;28;20206;-85
2023/05/01 04:23:47;;;;;;;4.53;3.00;;;3.40;97.30;;;;;;4985484;28;20186;-85
2023/05/01 04:26:12;;;;;;;1.40;1.30;;;3.40;97.30;;;;;;4980769;28;20175;-85
2023/05/01 04:28:38;;;;;;;4.50;2.37;;;3.40;97.30;;;;;;4965673;28;20182;-83
2023/05/01 04:31:03;;;;;;;2.23;2.03;;;3.40;97.30;;;;;;4982163;28;20183;-85
2023/05/01 04:33:29;;;;;;;1.97;1.87;;;3.40;97.30;;;;;;4973969;28;20726;-85
2023/05/01 04:35:54;;;;;;;3.53;2.80;;;3.40;97.30;;;;;;4960025;28;20195;-85
2023/05/01 04:38:20;;;;;;;2.97;1.93;;;3.50;97.30;;;;;;4987740;28;20999;-84
2023/05/01 04:40:45;;;;;;;9.50;2.90;;;3.60;97.30;;;;;;4957703;28;20226;-85
2023/05/01 04:43:11;;;;;;;3.93;3.67;;;3.70;97.30;;;;;;4963564;28;20686;-85
2023/05/01 04:45:39;;;;;;;3.20;2.80;;;3.80;97.30;;;;;;4977381;28;20210;-84
2023/05/01 04:48:05;;;;;;;5.43;3.50;;;3.90;97.30;;;;;;4966152;28;20196;-84
2023/05/01 04:50:31;;;;;;;18.50;5.37;;;4.00;97.30;;;;;;4981835;28;20421;-85
2023/05/01 04:52:56;;;;;;;2.80;2.60;;;4.10;97.30;;;;;;4982664;28;20214;-85
2023/05/01 04:55:21;;;;;;;7.20;3.40;;;4.20;97.30;;;;;;4979332;28;20666;-84
2023/05/01 04:57:47;;;;;;;4.50;3.67;;;4.30;97.30;;;;;;4984619;28;20202;-85
2023/05/01 05:00:13;;;;;;;3.00;2.80;;;4.40;97.30;;;;;;4988564;28;20672;-85
2023/05/01 05:02:39;;;;;;;4.20;3.97;;;4.50;97.30;;;;;;4965339;28;20233;-85
2023/05/01 05:05:05;;;;;;;3.00;2.80;;;4.60;97.30;;;;;;4986058;28;20417;-85
2023/05/01 05:07:30;;;;;;;3.20;3.00;;;4.70;97.30;;;;;;4977841;28;20182;-84
2023/05/01 05:09:56;;;;;;;9.97;5.50;;;4.80;97.30;;;;;;4957369;28;20477;-85
2023/05/01 05:12:22;;;;;;;9.93;5.00;;;4.90;97.30;;;;;;4979162;28;20205;-85
2023/05/01 05:14:47;;;;;;;5.00;3.10;;;5.00;97.30;;;;;;4964899;28;20273;-85
2023/05/01 05:17:13;;;;;;;9.07;4.80;;;5.10;97.30;;;;;;4965016;28;20560;-85
2023/05/01 05:19:38;;;;;;;9.20;5.23;;;5.20;97.30;;;;;;4981236;28;20206;-85
2023/05/01 05:22:04;;;;;;;5.00;4.70;;;5.30;97.30;;;;;;4983551;28;20202;-84
2023/05/01 05:24:30;;;;;;;12.13;5.47;;;5.40;97.30;;;;;;4989399;28;20175;-84
2023/05/01 05:26:55;;;;;;;8.90;6.17;;;5.60;97.30;;;;;;4982745;28;20682;-84
2023/05/01 05:29:21;;;;;;;7.63;4.47;;;5.60;97.30;;;;;;4957211;28;20655;-84
2023/05/01 05:31:47;;;;;;;16.30;5.93;;;5.80;97.30;;;;;;4957585;28;20213;-85
2023/05/01 05:34:12;;;;;;;3.73;3.43;;;5.90;97.30;;;;;;4989340;28;20240;-84
2023/05/01 05:36:38;;;;;;;9.20;5.80;;;6.00;97.30;;;;;;4957211;28;20274;-85
2023/05/01 05:39:04;;;;;;;8.00;6.73;;;6.10;97.30;;;;;;4961186;28;20192;-86
2023/05/01 05:41:29;;;;;;;8.30;5.20;;;6.10;97.30;;;;;;4985361;28;20198;-85
2023/05/01 05:43:55;;;;;;;13.73;8.27;;;6.30;97.30;;;;;;4984029;28;20268;-85
2023/05/01 05:46:20;;;;;;;12.47;7.53;;;6.40;97.30;;;;;;4967937;28;20174;-90
2023/05/01 05:48:46;;;;;;;10.10;7.03;;;6.50;97.30;;;;;;4967148;28;20261;-84
2023/05/01 05:51:11;;;;;;;12.90;5.50;;;6.60;97.30;;;;;;4983737;28;20212;-84
2023/05/01 05:53:37;;;;;;;7.50;4.37;;;6.70;97.30;;;;;;4985963;28;20721;-83
2023/05/01 05:56:03;;;;;;;8.20;5.43;;;6.80;97.30;;;;;;4965164;28;20193;-84
2023/05/01 05:58:29;;;;;;;8.57;5.93;;;6.80;97.30;;;;;;4969827;28;20191;-86
2023/05/01 06:00:54;;;;;;;6.83;6.00;;;6.90;97.30;;;;;;4970567;28;20429;-85
2023/05/01 06:03:20;;;;;;;13.63;6.40;;;6.90;97.30;;;;;;4984378;28;20619;-85
2023/05/01 06:05:47;;;;;;;9.80;6.03;;;7.00;97.30;;;;;;4973118;28;20179;-84
2023/05/01 06:08:13;;;;;;;12.27;6.13;;;7.10;97.30;;;;;;4956632;28;20430;-85
2023/05/01 06:10:40;;;;;;;19.47;6.40;;;7.20;97.30;;;;;;4973097;28;20440;-83
2023/05/01 06:13:09;;;;;;;10.97;9.30;;;7.20;97.30;;;;;;4965528;28;20500;-84
2023/05/01 06:15:36;;;;;;;5.60;5.30;;;7.30;97.30;;;;;;4971179;28;20425;-84
2023/05/01 06:18:02;;;;;;;6.00;4.47;;;7.40;97.30;;;;;;4969943;28;20634;-82
2023/05/01 06:20:28;;;;;;;12.23;6.07;;;7.50;97.30;;;;;;4964683;28;20512;-84
2023/05/01 06:22:54;;;;;;;16.10;6.73;;;7.60;97.30;;;;;;4975232;28;20438;-84
2023/05/01 06:25:20;;;;;;;4.63;4.20;;;7.70;97.30;;;;;;4993127;28;20427;-84
2023/05/01 06:27:45;;;;;;;10.90;5.90;;;7.80;97.30;;;;;;4975363;28;20418;-83
2023/05/01 06:30:11;;;;;;;4.60;3.93;;;7.90;97.30;;;;;;4980840;28;20185;-83
2023/05/01 06:32:36;;;;;;;6.70;4.77;;;7.90;97.30;;;;;;4981628;28;20248;-83
2023/05/01 06:35:02;;;;;;;7.20;4.70;;;8.00;97.30;;;;;;4982425;28;20820;-85
2023/05/01 06:37:28;;;;;;;9.43;4.97;;;8.20;97.30;;;;;;4981405;28;20245;-83
2023/05/01 06:39:54;;;;;;;7.30;3.70;;;8.30;97.30;;;;;;4961200;28;20306;-84
2023/05/01 06:42:20;;;;;;;5.43;5.13;;;8.40;97.30;;;;;;4991644;28;20520;-84
2023/05/01 06:44:45;;;;;;;13.53;6.30;;;8.60;97.30;;;;;;4977351;28;20929;-84
2023/05/01 06:47:11;;;;;;;9.80;5.83;;;8.70;97.30;;;;;;4983545;28;20185;-83
2023/05/01 06:49:36;;;;;;;3.93;3.80;;;8.90;97.00;;;;;;4984007;28;20196;-83
2023/05/01 06:52:02;;;;;;;10.23;6.63;;;9.00;97.00;;;;;;4977880;28;20210;-84
2023/05/01 06:54:27;;;;;;;5.57;4.53;;;9.20;96.80;;;;;;4967471;28;20791;-81
2023/05/01 06:56:53;;;;;;;4.30;3.53;;;9.30;96.20;;;;;;4959297;28;20293;-81
2023/05/01 06:59:18;;;;;;;6.10;3.50;;;9.50;96.20;;;;;;4983395;28;20269;-82
2023/05/01 07:01:44;;;;;;;6.97;3.97;;;9.70;95.70;;;;;;4967237;28;20205;-81
2023/05/01 07:04:09;;;;;;;8.77;5.90;;;9.80;95.50;;;;;;4983631;28;20185;-82
2023/05/01 07:06:36;;;;;;;4.07;3.87;;;10.00;95.60;;;;;;4959368;28;20235;-81
2023/05/01 07:09:01;;;;;;;5.03;4.07;;;10.10;94.50;;;;;;4977620;28;20186;-82
2023/05/01 07:11:27;;;;;;;7.03;3.93;;;10.20;93.80;;;;;;4987739;28;20448;-80
2023/05/01 07:13:53;;;;;;;3.80;3.37;;;10.30;93.80;;;;;;4977544;28;20429;-81
2023/05/01 07:16:19;;;;;;;6.60;5.10;;;10.40;93.00;;;;;;4989027;28;20200;-80
2023/05/01 07:18:45;;;;;;;22.87;5.70;;;10.60;93.30;;;;;;4982368;28;20779;-81
2023/05/01 07:21:10;;;;;;;6.60;4.20;;;10.70;93.00;;;;;;4987181;28;20441;-81
2023/05/01 07:23:37;;;;;;;3.97;3.77;;;10.80;92.20;;;;;;4975865;28;20179;-82
2023/05/01 07:26:02;;;;;;;9.00;4.30;;;10.90;92.10;;;;;;4993060;28;20706;-82
2023/05/01 07:28:28;;;;;;;13.70;6.70;;;11.10;93.30;;;;;;4959247;28;20501;-84
2023/05/01 07:30:54;;;;;;;4.87;3.33;;;11.30;93.40;;;;;;4968203;28;20421;-83
2023/05/01 07:33:19;;;;;;;3.93;3.73;;;11.40;91.90;;;;;;4991385;28;20457;-82
2023/05/01 07:35:45;;;;;;;7.97;4.70;;;11.50;91.50;;;;;;4984514;28;20194;-82
2023/05/01 07:38:11;;;;;;;10.13;3.63;;;11.60;91.50;;;;;;4958905;28;20766;-81
2023/05/01 07:40:37;;;;;;;6.90;3.77;;;11.70;92.20;;;;;;4958907;28;20185;-82
2023/05/01 07:43:03;;;;;;;5.90;4.13;;;11.80;90.30;;;;;;4977337;28;20220;-82
2023/05/01 07:45:29;;;;;;;9.17;5.20;;;11.90;90.30;;;;;;4983009;28;20981;-82
2023/05/01 07:47:55;;;;;;;13.33;4.67;;;12.00;90.90;;;;;;4976668;28;20429;-85
2023/05/01 07:50:21;;;;;;;10.00;4.40;;;12.10;89.80;;;;;;4975591;28;20197;-80
2023/05/01 07:52:47;;;;;;;6.83;3.83;;;12.20;90.00;;;;;;4958834;28;20536;-82
2023/05/01 07:55:12;;;;;;;13.93;6.07;;;12.30;89.70;;;;;;4978305;28;20189;-81
2023/05/01 07:57:38;;;;;;;6.20;4.83;;;12.40;88.90;;;;;;4979007;28;20206;-83
2023/05/01 08:00:04;;;;;;;10.77;4.53;;;12.50;89.20;;;;;;4982234;28;20181;-80
2023/05/01 08:02:29;;;;;;;13.00;5.83;;;12.60;89.60;;;;;;4982682;28;20198;-79
2023/05/01 08:04:55;;;;;;;10.37;4.73;;;12.70;88.70;;;;;;4959301;28;20508;-83
2023/05/01 08:07:21;;;;;;;7.03;4.87;;;12.90;90.10;;;;;;4981721;28;20189;-82
2023/05/01 08:09:46;;;;;;;15.43;5.90;;;13.10;88.70;;;;;;4982294;28;20670;-82
2023/05/01 08:12:12;;;;;;;3.17;2.97;;;13.20;87.90;;;;;;4979032;28;20208;-82
2023/05/01 08:14:38;;;;;;;10.93;3.33;;;13.40;87.90;;;;;;4985937;28;20728;-83
2023/05/01 08:17:03;;;;;;;12.73;4.07;;;13.60;90.20;;;;;;4986304;28;20465;-82
2023/05/01 08:19:29;;;;;;;4.13;2.70;;;13.90;89.90;;;;;;4981002;28;20242;-82
2023/05/01 08:21:54;;;;;;;12.33;6.77;;;14.10;87.20;;;;;;4959079;28;20691;-82
2023/05/01 08:24:20;;;;;;;4.17;3.47;;;14.40;87.90;;;;;;4994770;28;20233;-83
2023/05/01 08:26:45;;;;;;;4.50;3.30;;;14.70;87.50;;;;;;4993776;28;20815;-83
2023/05/01 08:29:11;;;;;;;2.83;2.40;;;14.90;86.10;;;;;;4982843;28;20190;-82
2023/05/01 08:31:38;;;;;;;3.70;3.50;;;15.00;85.60;;;;;;4958197;28;20237;-82
2023/05/01 08:34:04;;;;;;;9.10;4.60;;;15.20;85.20;;;;;;4967382;28;20233;-82
2023/05/01 08:36:30;;;;;;;11.33;8.53;;;15.30;86.10;;;;;;4988132;28;20422;-84
2023/05/01 08:38:56;;;;;;;14.20;5.03;;;15.40;85.70;;;;;;4967041;28;20551;-83
2023/05/01 08:41:22;;;;;;;16.90;7.27;;;15.50;82.40;;;;;;4990411;28;20584;-81
2023/05/01 08:43:48;;;;;;;8.53;4.23;;;15.80;84.10;;;;;;4982077;28;20186;-83
2023/05/01 08:46:56;;;;;;;12.57;5.43;;;16.00;83.80;;;;;;4978678;28;20792;-83
2023/05/01 08:49:24;;;;;;;6.60;3.60;;;16.00;81.50;;;;;;4899699;29;20265;-83
2023/05/01 08:51:52;;;;;;;16.87;5.43;;;15.90;78.30;;;;;;4923320;29;20476;-82
2023/05/01 08:54:19;;;;;;;8.23;5.00;;;15.90;80.80;;;;;;4944995;28;20422;-81
2023/05/01 08:56:46;;;;;;;5.40;3.90;;;16.00;81.00;;;;;;4980778;28;20575;-82
2023/05/01 08:59:13;;;;;;;11.93;8.97;;;16.00;81.30;;;;;;4960065;28;20420;-82
2023/05/01 09:01:40;;;;;;;8.77;4.33;;;16.10;82.30;;;;;;4992618;28;20880;-83
2023/05/01 09:04:06;;;;;;;5.37;3.97;;;16.30;80.40;;;;;;4984602;28;20421;-83
2023/05/01 09:06:32;;;;;;;8.80;5.53;;;16.50;80.60;;;;;;4984846;28;20970;-83
2023/05/01 09:09:00;;;;;;;12.90;5.93;;;16.90;80.10;;;;;;4981015;28;20424;-81
2023/05/01 09:11:27;;;;;;;7.60;4.30;;;16.90;80.10;;;;;;4973023;28;20193;-82
2023/05/01 09:13:53;;;;;;;7.53;4.47;;;17.00;79.70;;;;;;4963070;28;21112;-81
2023/05/01 09:16:20;;;;;;;4.87;3.60;;;;;;;;;;4981050;28;20429;-84
2023/05/01 09:18:46;;;;;;;4.20;3.10;;;17.30;79.00;;;;;;4957249;28;20293;-84
2023/05/01 09:21:12;;;;;;;4.97;3.37;;;17.20;78.50;;;;;;4973107;28;20438;-85
2023/05/01 09:23:39;;;;;;;6.10;4.50;;;17.20;77.60;;;;;;4980308;28;20882;-84
2023/05/01 09:26:08;;;;;;;22.97;4.67;;;17.00;76.90;;;;;;4974493;28;20183;-84
2023/05/01 09:28:45;;;;;;;5.87;4.50;;;17.10;79.20;;;;;;4972955;28;20437;-85
2023/05/01 09:31:27;;;;;;;8.93;3.10;;;17.30;78.90;;;;;;4972800;28;20476;-84
2023/05/01 09:33:58;;;;;;;2.93;2.80;;;17.50;78.10;;;;;;4973732;28;20469;-82
2023/05/01 09:36:26;;;;;;;10.40;3.13;;;17.70;78.00;;;;;;4970824;28;20533;-85
2023/05/01 09:38:52;;;;;;;6.43;2.80;;;17.60;76.50;;;;;;4953576;28;20473;-84
2023/05/01 09:41:19;;;;;;;1.97;1.83;;;17.70;76.50;;;;;;4965791;28;20806;-84
2023/05/01 09:43:50;;;;;;;4.30;3.47;;;17.80;74.70;;;;;;4974251;28;20174;-84
2023/05/01 09:46:16;;;;;;;4.60;1.87;;;18.00;76.00;;;;;;4973055;28;20464;-84
2023/05/01 09:48:57;;;;;;;2.90;2.70;;;18.20;74.90;;;;;;4976921;28;20544;-83
2023/05/01 09:51:31;;;;;;;3.40;2.80;;;18.30;75.60;;;;;;4975980;28;20940;-85
2023/05/01 09:53:59;;;;;;;3.10;2.80;;;18.30;73.90;;;;;;4961344;28;20422;-84
2023/05/01 09:56:25;;;;;;;6.03;2.70;;;18.10;71.60;;;;;;4962347;28;20414;-84
2023/05/01 09:58:52;;;;;;;9.20;2.57;;;18.10;71.70;;;;;;4949997;28;20458;-84
2023/05/01 10:01:36;;;;;;;5.23;1.80;;;18.10;71.60;;;;;;4963405;28;20813;-84
2023/05/01 10:04:02;;;;;;;2.83;2.30;;;18.10;71.20;;;;;;4961075;28;20926;-84
2023/05/01 10:06:28;;;;;;;3.80;2.20;;;18.10;74.40;;;;;;4973158;28;20791;-83
2023/05/01 10:08:53;;;;;;;1.83;1.43;;;18.20;70.70;;;;;;4980892;28;20426;-85
2023/05/01 10:11:20;;;;;;;3.20;2.13;;;18.30;71.70;;;;;;4980085;28;20179;-84
2023/05/01 10:14:00;;;;;;;2.00;1.63;;;18.50;70.90;;;;;;4963307;28;20197;-84
2023/05/01 10:16:29;;;;;;;10.13;2.20;;;18.60;71.70;;;;;;4973511;28;20417;-84
2023/05/01 10:18:57;;;;;;;1.53;1.43;;;18.70;70.90;;;;;;4973339;28;20466;-81
2023/05/01 10:21:22;;;;;;;2.80;1.97;;;18.80;70.40;;;;;;4970303;28;20414;-84
2023/05/01 10:23:48;;;;;;;3.17;2.77;;;18.90;73.20;;;;;;4961371;28;20433;-85
2023/05/01 10:26:15;;;;;;;10.97;3.83;;;18.80;72.50;;;;;;4978536;28;20202;-82
2023/05/01 10:28:41;;;;;;;6.97;2.70;;;18.90;73.80;;;;;;4977652;28;20644;-83
2023/05/01 10:31:09;;;;;;;2.40;2.10;;;18.90;70.40;;;;;;4961062;28;20473;-83
2023/05/01 10:33:34;;;;;;;1.40;1.30;;;18.80;70.00;;;;;;4973779;28;20414;-82
2023/05/01 10:36:02;;;;;;;3.33;2.47;;;18.70;69.20;;;;;;4973854;28;20438;-83
2023/05/01 10:38:36;;;;;;;2.57;2.10;;;18.80;69.00;;;;;;4956383;28;20198;-82
2023/05/01 10:41:02;;;;;;;7.10;2.90;;;18.90;71.50;;;;;;4977993;28;20406;-84
2023/05/01 10:43:29;;;;;;;1.77;1.70;;;19.00;71.00;;;;;;4959826;28;21330;-84
2023/05/01 10:46:17;;;;;;;1.37;1.27;;;19.20;72.80;;;;;;4978599;28;21119;-82
2023/05/01 10:48:46;;;;;;;3.60;2.03;;;19.30;72.90;;;;;;4988644;28;20493;-84
2023/05/01 10:51:26;;;;;;;3.17;2.00;;;19.40;70.40;;;;;;4980062;28;20440;-85
2023/05/01 10:54:22;;;;;;;3.70;2.27;;;19.60;71.80;;;;;;4972110;28;20434;-85
2023/05/01 10:56:48;;;;;;;1.30;1.30;;;19.60;69.00;;;;;;4955671;28;20425;-84
2023/05/01 10:59:13;;;;;;;2.03;1.63;;;19.70;70.50;;;;;;4987303;28;20426;-84
2023/05/01 11:01:50;;;;;;;2.33;1.80;;;19.90;70.30;;;;;;4989076;28;20248;-85
2023/05/01 11:04:22;;;;;;;1.70;1.60;;;19.90;69.90;;;;;;4977036;28;20300;-85
2023/05/01 11:07:09;;;;;;;2.07;1.93;;;20.00;68.10;;;;;;4967648;28;20430;-85
2023/05/01 11:09:38;;;;;;;2.07;1.93;;;20.00;69.00;;;;;;4956904;28;20472;-85
2023/05/01 11:12:05;;;;;;;1.87;1.80;;;20.00;69.50;;;;;;4969079;28;20440;-85
2023/05/01 11:15:04;;;;;;;3.13;1.90;;;20.00;68.30;;;;;;4955043;28;20434;-85
2023/05/01 11:17:42;;;;;;;2.00;1.90;;;20.20;70.30;;;;;;4955873;28;20466;-85
2023/05/01 11:20:31;;;;;;;1.93;1.87;;;20.40;68.90;;;;;;4973929;28;20802;-85
2023/05/01 11:22:57;;;;;;;4.90;2.30;;;20.50;69.40;;;;;;4961152;28;20449;-84
2023/05/01 11:25:29;;;;;;;6.47;2.40;;;20.50;66.10;;;;;;4971991;28;20422;-84
2023/05/01 11:28:00;;;;;;;3.60;1.87;;;20.70;70.10;;;;;;4978581;28;20467;-85
2023/05/01 11:30:25;;;;;;;2.03;1.90;;;20.80;69.40;;;;;;4977965;28;20438;-85
2023/05/01 11:32:51;;;;;;;2.33;1.87;;;20.90;70.40;;;;;;4975445;28;20444;-86
2023/05/01 11:35:22;;;;;;;6.43;2.97;;;20.90;69.70;;;;;;4973907;28;20742;-85
2023/05/01 11:37:54;;;;;;;3.93;3.40;;;20.90;69.10;;;;;;4959617;28;20203;-85
2023/05/01 11:40:25;;;;;;;3.07;2.43;;;21.10;71.70;;;;;;4965233;28;20489;-85
2023/05/01 11:43:02;;;;;;;2.80;2.33;;;21.20;70.50;;;;;;4976655;28;20485;-85
2023/05/01 11:45:28;;;;;;;3.20;1.97;;;21.30;70.10;;;;;;4971874;28;20625;-85
2023/05/01 11:47:54;;;;;;;2.60;2.20;;;21.30;68.60;;;;;;4977061;28;20422;-85
2023/05/01 11:50:22;;;;;;;4.03;2.53;;;21.20;68.90;;;;;;4979935;28;20424;-86
2023/05/01 11:52:53;;;;;;;8.67;3.37;;;21.20;66.80;;;;;;4973291;28;20203;-85
2023/05/01 11:55:19;;;;;;;3.30;2.03;;;21.40;70.10;;;;;;4957840;28;20453;-86
2023/05/01 11:57:52;;;;;;;7.07;3.30;;;21.50;69.80;;;;;;4971015;28;20453;-86
2023/05/01 12:00:29;;;;;;;2.43;2.23;;;21.40;69.80;;;;;;4971232;28;20422;-85
2023/05/01 12:02:59;;;;;;;2.37;2.03;;;21.30;68.60;;;;;;4968782;28;20494;-85
2023/05/01 12:05:27;;;;;;;6.40;1.70;;;21.30;70.30;;;;;;4959805;28;20469;-86
2023/05/01 12:08:14;;;;;;;8.93;3.73;;;21.50;70.80;;;;;;4977314;28;20418;-86
2023/05/01 12:10:42;;;;;;;3.90;1.63;;;21.80;68.30;;;;;;4971989;28;20420;-86
2023/05/01 12:13:10;;;;;;;2.57;2.37;;;21.80;68.60;;;;;;4959328;28;20442;-86
2023/05/01 12:15:38;;;;;;;2.23;2.03;;;21.90;70.60;;;;;;4963695;28;20795;-85
2023/05/01 12:18:07;;;;;;;3.30;2.90;;;22.10;68.80;;;;;;4960570;28;20498;-85
2023/05/01 12:20:37;;;;;;;3.43;2.20;;;22.20;70.40;;;;;;4971148;28;20469;-86
2023/05/01 12:23:04;;;;;;;2.80;2.60;;;22.40;70.00;;;;;;4970406;28;20490;-84
2023/05/01 12:25:32;;;;;;;6.13;3.30;;;22.50;68.00;;;;;;4971878;28;20449;-85
2023/05/01 12:27:59;;;;;;;2.27;2.13;;;22.60;67.60;;;;;;4976737;28;20425;-85
2023/05/01 12:30:25;;;;;;;6.50;3.17;;;22.60;67.90;;;;;;4976922;28;20432;-84
2023/05/01 12:32:51;;;;;;;4.17;2.50;;;22.60;65.90;;;;;;4962965;28;20463;-85
2023/05/01 12:35:17;;;;;;;2.93;2.80;;;22.60;65.70;;;;;;4972563;28;21006;-86
2023/05/01 12:37:42;;;;;;;2.33;1.90;;;22.70;67.60;;;;;;4973766;28;20214;-85
2023/05/01 12:40:14;;;;;;;1.93;1.83;;;22.80;65.90;;;;;;4973815;28;20178;-86
2023/05/01 12:42:40;;;;;;;3.90;2.67;;;23.00;68.70;;;;;;4967776;28;20293;-86
2023/05/01 12:45:08;;;;;;;2.93;2.50;;;23.20;68.60;;;;;;4972526;28;20442;-86
2023/05/01 12:47:37;;;;;;;5.33;2.87;;;23.20;64.80;;;;;;4960714;28;20560;-86
2023/05/01 12:50:03;;;;;;;2.53;2.00;;;23.30;68.10;;;;;;4970842;28;20779;-85
2023/05/01 12:52:29;;;;;;;6.77;3.47;;;23.30;67.80;;;;;;4970694;28;20449;-86
2023/05/01 12:55:03;;;;;;;4.13;2.63;;;23.30;65.10;;;;;;4972827;28;20444;-86